Spirit Of New York — WCW9332 — position and weather

sailwx.info

Track history (hours):
 
Tides and Currents Weather Stations Pressure Air Temp Water Temp Dewpoint Dewpoint Depression Visibility Wind Speed Wind Dir Waves Ship Positions

Spirit Of New York

Owner: SPIRIT CRUISES LLC, NEW YORK, NY. More information available from US FCC via Universal Licensing System and Coast Guard Vessel Documentation Center.

Last reported at 2015-Jul-29 21:33 UTC. Time now 2015-Jul-29 22:02 UTC.
Position N 40°45' W 074°01'.

Length 62 m.

Type: Passenger vessel. MMSI: 338897000.

Date/timePositionNaut miles runAvg speedWind from/ knotsBaromVisibWave heightAir tempDewpointWater temp
2015-Jul-29 21:33N 40°45' W 074°01'0 0.0
2015-Jul-29 20:31N 40°45' W 074°01'0 0.0
2015-Jul-29 19:33N 40°45' W 074°01'0 0.0
2015-Jul-29 18:33N 40°45' W 074°01'1 0.9
2015-Jul-29 17:33N 40°44' W 074°01'2 2.4
2015-Jul-29 16:33N 40°42' W 074°02'3 0.2
2015-Jul-29 01:16N 40°45' W 074°01'4 5.2
2015-Jul-29 00:34N 40°41' W 074°02'4 4.1
2015-Jul-28 23:34N 40°45' W 074°01'0 0.3
2015-Jul-28 22:33N 40°45' W 074°01'0 0.0
2015-Jul-28 21:33N 40°45' W 074°01'0 0.0
2015-Jul-28 01:29N 40°45' W 074°01'4 3.8
2015-Jul-28 00:33N 40°42' W 074°02'4 4.3
2015-Jul-27 23:33N 40°46' W 074°01'1 0.8
2015-Jul-27 22:33N 40°45' W 074°01'0 0.0
2015-Jul-27 21:33N 40°45' W 074°01'0 0.0
2015-Jul-27 20:33N 40°45' W 074°01'0 0.0
2015-Jul-27 19:34N 40°45' W 074°01'0 0.0
2015-Jul-27 18:33N 40°45' W 074°01'2 1.7
2015-Jul-27 17:33N 40°43' W 074°01'1 0.6
2015-Jul-27 16:33N 40°43' W 074°02'2 0.1
2015-Jul-27 01:14N 40°45' W 074°01'4 5.7
2015-Jul-27 00:33N 40°41' W 074°03'4 4.4
2015-Jul-26 23:33N 40°45' W 074°01'0 0.4
2015-Jul-26 22:33N 40°45' W 074°01'0 0.0
2015-Jul-26 21:33N 40°45' W 074°01'0 0.0
2015-Jul-26 20:33N 40°45' W 074°01'0 0.0
2015-Jul-26 19:33N 40°45' W 074°01'0 0.0
2015-Jul-26 18:33N 40°45' W 074°01'1 0.9
2015-Jul-26 17:33N 40°44' W 074°01'2 2.2
2015-Jul-26 16:33N 40°42' W 074°02'3 3.0
2015-Jul-26 15:33N 40°45' W 074°01'0 0.0
2015-Jul-26 08:32N 40°45' W 074°01'3 3.2
2015-Jul-26 07:33N 40°42' W 074°02'1 1.0
2015-Jul-26 06:34N 40°43' W 074°02'2 2.2
2015-Jul-26 05:33N 40°45' W 074°01'0 0.0
2015-Jul-26 04:33N 40°45' W 074°01'0 0.0
2015-Jul-26 03:33N 40°45' W 074°01'0 0.0
2015-Jul-26 02:33N 40°45' W 074°01'1 1.2
2015-Jul-26 01:33N 40°44' W 074°01'2 1.6
2015-Jul-26 00:33N 40°42' W 074°00'3 3.4
2015-Jul-25 23:33N 40°46' W 074°01'1 0.8
2015-Jul-25 22:33N 40°45' W 074°01'0 0.0
2015-Jul-25 21:33N 40°45' W 074°01'0 0.0
2015-Jul-25 20:33N 40°45' W 074°01'0 0.0
2015-Jul-25 19:33N 40°45' W 074°01'0 0.0
2015-Jul-25 18:33N 40°45' W 074°01'1 0.7
2015-Jul-25 17:33N 40°44' W 074°01'2 2.0
2015-Jul-25 16:33N 40°42' W 074°02'3 2.7
2015-Jul-25 15:33N 40°45' W 074°01'0 0.0
2015-Jul-25 14:33N 40°45' W 074°01'0 0.0
2015-Jul-25 07:04N 40°45' W 074°01'2 3.2
2015-Jul-25 06:33N 40°43' W 074°01'2 1.8
2015-Jul-25 05:33N 40°42' W 073°59'3 3.2
2015-Jul-25 04:33N 40°45' W 074°01'1 0.6
2015-Jul-25 03:33N 40°45' W 074°01'0 0.0
2015-Jul-25 02:33N 40°45' W 074°01'0 0.0
2015-Jul-25 01:33N 40°45' W 074°01'4 3.9
2015-Jul-25 00:33N 40°41' W 074°03'4 4.4
2015-Jul-24 23:33N 40°45' W 074°01'1 0.5
2015-Jul-24 22:33N 40°45' W 074°01'0 0.0
2015-Jul-24 21:33N 40°45' W 074°01'3 3.0
2015-Jul-24 20:33N 40°42' W 074°00'3 3.0
2015-Jul-24 19:33N 40°45' W 074°01'0 0.0
2015-Jul-24 18:33N 40°45' W 074°01'1 1.4
2015-Jul-24 17:33N 40°43' W 074°01'2 1.9
2015-Jul-24 16:33N 40°42' W 074°02'3 0.2
2015-Jul-24 01:33N 40°45' W 074°01'4 4.0
2015-Jul-24 00:33N 40°41' W 074°03'4 4.4
2015-Jul-23 23:33N 40°45' W 074°01'0 0.5
2015-Jul-23 22:33N 40°45' W 074°01'0 0.0
2015-Jul-23 21:33N 40°45' W 074°01'0 0.0
2015-Jul-23 20:33N 40°45' W 074°01'0 0.0
2015-Jul-23 19:33N 40°45' W 074°01'0 0.0
2015-Jul-23 18:33N 40°45' W 074°01'1 1.4
2015-Jul-23 17:33N 40°44' W 074°01'2 1.9
2015-Jul-23 16:33N 40°42' W 074°02'3 0.2
2015-Jul-23 01:33N 40°45' W 074°01'4 4.1
2015-Jul-23 00:33N 40°41' W 074°03'5 4.7
2015-Jul-22 23:33N 40°46' W 074°01'1 0.7
2015-Jul-22 22:33N 40°45' W 074°01'0 0.0
2015-Jul-22 21:33N 40°45' W 074°01'0 0.0
2015-Jul-22 20:33N 40°45' W 074°01'0 0.0
2015-Jul-22 19:33N 40°45' W 074°01'1 0.8
2015-Jul-22 18:33N 40°46' W 074°01'2 2.0
2015-Jul-22 17:33N 40°44' W 074°01'1 1.0
2015-Jul-22 16:33N 40°45' W 074°01'1 1.1
2015-Jul-22 15:33N 40°46' W 074°01'1 0.7
2015-Jul-22 14:33N 40°45' W 074°01'0 0.0
2015-Jul-22 01:34N 40°44' W 074°01'3 3.2
2015-Jul-22 00:34N 40°41' W 074°02'4 4.0
2015-Jul-21 23:34N 40°45' W 074°01'1 0.6
2015-Jul-21 22:34N 40°45' W 074°01'0 0.0
2015-Jul-21 21:33N 40°45' W 074°01'0 0.0
2015-Jul-21 20:34N 40°45' W 074°01'0 0.0
2015-Jul-21 19:33N 40°45' W 074°01'0 0.0
2015-Jul-21 18:34N 40°45' W 074°01'1 0.7
2015-Jul-21 17:33N 40°44' W 074°01'2 1.7
2015-Jul-21 16:34N 40°43' W 074°02'2 2.4
2015-Jul-21 15:34N 40°45' W 074°01'0 0.0
2015-Jul-21 14:34N 40°45' W 074°01'0 0.0
2015-Jul-21 13:34N 40°45' W 074°01'0 0.0
2015-Jul-21 12:34N 40°45' W 074°01'0 0.0
2015-Jul-21 11:34N 40°45' W 074°01'0 0.0
2015-Jul-21 10:34N 40°45' W 074°01'0 0.0
2015-Jul-21 09:34N 40°45' W 074°01'0 0.0
2015-Jul-21 08:34N 40°45' W 074°01'0 0.0
2015-Jul-21 07:34N 40°45' W 074°01'0 0.0
2015-Jul-21 06:34N 40°45' W 074°01'0 0.0
2015-Jul-21 05:34N 40°45' W 074°01'0 0.0
2015-Jul-21 04:34N 40°45' W 074°01'0 0.0
2015-Jul-21 03:34N 40°45' W 074°01'0 0.0
2015-Jul-21 02:33N 40°45' W 074°01'0 0.0
2015-Jul-21 01:34N 40°45' W 074°01'0 0.0
2015-Jul-21 00:34N 40°45' W 074°01'0 0.0
2015-Jul-20 23:34N 40°45' W 074°01'0 0.0
2015-Jul-20 22:34N 40°45' W 074°01'0 0.0
2015-Jul-20 21:33N 40°45' W 074°01'0 0.0
2015-Jul-20 20:34N 40°45' W 074°01'0 0.0
2015-Jul-20 19:33N 40°45' W 074°01'0 0.0
2015-Jul-20 18:34N 40°45' W 074°01'1 1.1
2015-Jul-20 17:34N 40°44' W 074°01'1 1.2
2015-Jul-20 16:34N 40°43' W 074°02'3 2.8
2015-Jul-20 15:34N 40°46' W 074°01'1 0.8
2015-Jul-20 14:34N 40°45' W 074°01'0 0.0
2015-Jul-20 02:32N 40°45' W 074°01'1 0.5
2015-Jul-20 01:33N 40°44' W 074°01'3 3.4
2015-Jul-20 00:33N 40°41' W 074°03'5 4.9
2015-Jul-19 23:33N 40°46' W 074°01'1 1.0
2015-Jul-19 22:33N 40°45' W 074°01'0 0.0
2015-Jul-19 21:33N 40°45' W 074°01'  
Track history (hours):
 
Tides and Currents Weather Stations Pressure Air Temp Water Temp Dewpoint Dewpoint Depression Visibility Wind Speed Wind Dir Waves Ship Positions

Spirit Of New York

Owner: SPIRIT CRUISES LLC, NEW YORK, NY. More information available from US FCC via Universal Licensing System and Coast Guard Vessel Documentation Center.

Last reported at 2015-Jul-29 21:33 UTC. Time now 2015-Jul-29 22:02 UTC.
Position N 40°45' W 074°01'.

Length 62 m.

Type: Passenger vessel. MMSI: 338897000.

Date/timePositionNaut miles runAvg speedWind from/ knotsBaromVisibWave heightAir tempDewpointWater temp
2015-Jul-29 21:33N 40°45' W 074°01'0 0.0
2015-Jul-29 20:31N 40°45' W 074°01'0 0.0
2015-Jul-29 19:33N 40°45' W 074°01'0 0.0
2015-Jul-29 18:33N 40°45' W 074°01'1 0.9
2015-Jul-29 17:33N 40°44' W 074°01'2 2.4
2015-Jul-29 16:33N 40°42' W 074°02'3 0.2
2015-Jul-29 01:16N 40°45' W 074°01'4 5.2
2015-Jul-29 00:34N 40°41' W 074°02'4 4.1
2015-Jul-28 23:34N 40°45' W 074°01'0 0.3
2015-Jul-28 22:33N 40°45' W 074°01'0 0.0
2015-Jul-28 21:33N 40°45' W 074°01'0 0.0
2015-Jul-28 01:29N 40°45' W 074°01'4 3.8
2015-Jul-28 00:33N 40°42' W 074°02'4 4.3
2015-Jul-27 23:33N 40°46' W 074°01'1 0.8
2015-Jul-27 22:33N 40°45' W 074°01'0 0.0
2015-Jul-27 21:33N 40°45' W 074°01'0 0.0
2015-Jul-27 20:33N 40°45' W 074°01'0 0.0
2015-Jul-27 19:34N 40°45' W 074°01'0 0.0
2015-Jul-27 18:33N 40°45' W 074°01'2 1.7
2015-Jul-27 17:33N 40°43' W 074°01'1 0.6
2015-Jul-27 16:33N 40°43' W 074°02'2 0.1
2015-Jul-27 01:14N 40°45' W 074°01'4 5.7
2015-Jul-27 00:33N 40°41' W 074°03'4 4.4
2015-Jul-26 23:33N 40°45' W 074°01'0 0.4
2015-Jul-26 22:33N 40°45' W 074°01'0 0.0
2015-Jul-26 21:33N 40°45' W 074°01'0 0.0
2015-Jul-26 20:33N 40°45' W 074°01'0 0.0
2015-Jul-26 19:33N 40°45' W 074°01'0 0.0
2015-Jul-26 18:33N 40°45' W 074°01'1 0.9
2015-Jul-26 17:33N 40°44' W 074°01'2 2.2
2015-Jul-26 16:33N 40°42' W 074°02'3 3.0
2015-Jul-26 15:33N 40°45' W 074°01'0 0.0
2015-Jul-26 08:32N 40°45' W 074°01'3 3.2
2015-Jul-26 07:33N 40°42' W 074°02'1 1.0
2015-Jul-26 06:34N 40°43' W 074°02'2 2.2
2015-Jul-26 05:33N 40°45' W 074°01'0 0.0
2015-Jul-26 04:33N 40°45' W 074°01'0 0.0
2015-Jul-26 03:33N 40°45' W 074°01'0 0.0
2015-Jul-26 02:33N 40°45' W 074°01'1 1.2
2015-Jul-26 01:33N 40°44' W 074°01'2 1.6
2015-Jul-26 00:33N 40°42' W 074°00'3 3.4
2015-Jul-25 23:33N 40°46' W 074°01'1 0.8
2015-Jul-25 22:33N 40°45' W 074°01'0 0.0
2015-Jul-25 21:33N 40°45' W 074°01'0 0.0
2015-Jul-25 20:33N 40°45' W 074°01'0 0.0
2015-Jul-25 19:33N 40°45' W 074°01'0 0.0
2015-Jul-25 18:33N 40°45' W 074°01'1 0.7
2015-Jul-25 17:33N 40°44' W 074°01'2 2.0
2015-Jul-25 16:33N 40°42' W 074°02'3 2.7
2015-Jul-25 15:33N 40°45' W 074°01'0 0.0
2015-Jul-25 14:33N 40°45' W 074°01'0 0.0
2015-Jul-25 07:04N 40°45' W 074°01'2 3.2
2015-Jul-25 06:33N 40°43' W 074°01'2 1.8
2015-Jul-25 05:33N 40°42' W 073°59'3 3.2
2015-Jul-25 04:33N 40°45' W 074°01'1 0.6
2015-Jul-25 03:33N 40°45' W 074°01'0 0.0
2015-Jul-25 02:33N 40°45' W 074°01'0 0.0
2015-Jul-25 01:33N 40°45' W 074°01'4 3.9
2015-Jul-25 00:33N 40°41' W 074°03'4 4.4
2015-Jul-24 23:33N 40°45' W 074°01'1 0.5
2015-Jul-24 22:33N 40°45' W 074°01'0 0.0
2015-Jul-24 21:33N 40°45' W 074°01'3 3.0
2015-Jul-24 20:33N 40°42' W 074°00'3 3.0
2015-Jul-24 19:33N 40°45' W 074°01'0 0.0
2015-Jul-24 18:33N 40°45' W 074°01'1 1.4
2015-Jul-24 17:33N 40°43' W 074°01'2 1.9
2015-Jul-24 16:33N 40°42' W 074°02'3 0.2
2015-Jul-24 01:33N 40°45' W 074°01'4 4.0
2015-Jul-24 00:33N 40°41' W 074°03'4 4.4
2015-Jul-23 23:33N 40°45' W 074°01'0 0.5
2015-Jul-23 22:33N 40°45' W 074°01'0 0.0
2015-Jul-23 21:33N 40°45' W 074°01'0 0.0
2015-Jul-23 20:33N 40°45' W 074°01'0 0.0
2015-Jul-23 19:33N 40°45' W 074°01'0 0.0
2015-Jul-23 18:33N 40°45' W 074°01'1 1.4
2015-Jul-23 17:33N 40°44' W 074°01'2 1.9
2015-Jul-23 16:33N 40°42' W 074°02'3 0.2
2015-Jul-23 01:33N 40°45' W 074°01'4 4.1
2015-Jul-23 00:33N 40°41' W 074°03'5 4.7
2015-Jul-22 23:33N 40°46' W 074°01'1 0.7
2015-Jul-22 22:33N 40°45' W 074°01'0 0.0
2015-Jul-22 21:33N 40°45' W 074°01'0 0.0
2015-Jul-22 20:33N 40°45' W 074°01'0 0.0
2015-Jul-22 19:33N 40°45' W 074°01'1 0.8
2015-Jul-22 18:33N 40°46' W 074°01'2 2.0
2015-Jul-22 17:33N 40°44' W 074°01'1 1.0
2015-Jul-22 16:33N 40°45' W 074°01'1 1.1
2015-Jul-22 15:33N 40°46' W 074°01'1 0.7
2015-Jul-22 14:33N 40°45' W 074°01'0 0.0
2015-Jul-22 01:34N 40°44' W 074°01'3 3.2
2015-Jul-22 00:34N 40°41' W 074°02'4 4.0
2015-Jul-21 23:34N 40°45' W 074°01'1 0.6
2015-Jul-21 22:34N 40°45' W 074°01'0 0.0
2015-Jul-21 21:33N 40°45' W 074°01'0 0.0
2015-Jul-21 20:34N 40°45' W 074°01'0 0.0
2015-Jul-21 19:33N 40°45' W 074°01'0 0.0
2015-Jul-21 18:34N 40°45' W 074°01'1 0.7
2015-Jul-21 17:33N 40°44' W 074°01'2 1.7
2015-Jul-21 16:34N 40°43' W 074°02'2 2.4
2015-Jul-21 15:34N 40°45' W 074°01'0 0.0
2015-Jul-21 14:34N 40°45' W 074°01'0 0.0
2015-Jul-21 13:34N 40°45' W 074°01'0 0.0
2015-Jul-21 12:34N 40°45' W 074°01'0 0.0
2015-Jul-21 11:34N 40°45' W 074°01'0 0.0
2015-Jul-21 10:34N 40°45' W 074°01'0 0.0
2015-Jul-21 09:34N 40°45' W 074°01'0 0.0
2015-Jul-21 08:34N 40°45' W 074°01'0 0.0
2015-Jul-21 07:34N 40°45' W 074°01'0 0.0
2015-Jul-21 06:34N 40°45' W 074°01'0 0.0
2015-Jul-21 05:34N 40°45' W 074°01'0 0.0
2015-Jul-21 04:34N 40°45' W 074°01'0 0.0
2015-Jul-21 03:34N 40°45' W 074°01'0 0.0
2015-Jul-21 02:33N 40°45' W 074°01'0 0.0
2015-Jul-21 01:34N 40°45' W 074°01'0 0.0
2015-Jul-21 00:34N 40°45' W 074°01'0 0.0
2015-Jul-20 23:34N 40°45' W 074°01'0 0.0
2015-Jul-20 22:34N 40°45' W 074°01'0 0.0
2015-Jul-20 21:33N 40°45' W 074°01'0 0.0
2015-Jul-20 20:34N 40°45' W 074°01'0 0.0
2015-Jul-20 19:33N 40°45' W 074°01'0 0.0
2015-Jul-20 18:34N 40°45' W 074°01'1 1.1
2015-Jul-20 17:34N 40°44' W 074°01'1 1.2
2015-Jul-20 16:34N 40°43' W 074°02'3 2.8
2015-Jul-20 15:34N 40°46' W 074°01'1 0.8
2015-Jul-20 14:34N 40°45' W 074°01'0 0.0
2015-Jul-20 02:32N 40°45' W 074°01'1 0.5
2015-Jul-20 01:33N 40°44' W 074°01'3 3.4
2015-Jul-20 00:33N 40°41' W 074°03'5 4.9
2015-Jul-19 23:33N 40°46' W 074°01'1 1.0
2015-Jul-19 22:33N 40°45' W 074°01'0 0.0
2015-Jul-19 21:33N 40°45' W 074°01'  

Dump ship's entire track history